createdAt,value
2018-07-08T00:06:55.888Z,17.50
2018-07-08T00:16:43.625Z,17.50
2018-07-08T00:21:38.355Z,17.40
2018-07-08T00:26:31.612Z,17.30
2018-07-08T00:31:24.866Z,17.30
2018-07-08T00:36:18.103Z,17.20
2018-07-08T00:46:04.648Z,17.00
2018-07-08T00:55:51.118Z,16.90
2018-07-08T01:00:44.465Z,16.90
2018-07-08T01:05:37.744Z,16.80
2018-07-08T01:15:24.608Z,16.70
2018-07-08T01:25:14.141Z,16.50
2018-07-08T01:30:07.832Z,16.40
2018-07-08T01:35:01.318Z,16.40
2018-07-08T01:39:54.588Z,16.30
2018-07-08T01:44:47.827Z,16.20
2018-07-08T01:49:41.144Z,16.20
2018-07-08T01:54:34.472Z,16.10
2018-07-08T01:59:27.726Z,16.00
2018-07-08T02:04:21.041Z,16.00
2018-07-08T02:14:07.708Z,15.90
2018-07-08T02:19:01.027Z,15.90
2018-07-08T02:23:54.280Z,15.80
2018-07-08T02:28:47.653Z,15.80
2018-07-08T02:33:41.028Z,15.70
2018-07-08T02:38:34.264Z,15.70
2018-07-08T02:43:27.598Z,15.70
2018-07-08T02:48:20.919Z,15.60
2018-07-08T02:53:14.317Z,15.50
2018-07-08T02:58:07.576Z,15.40
2018-07-08T03:07:54.566Z,15.30
2018-07-08T03:12:47.815Z,15.20
2018-07-08T03:32:20.540Z,15.10
2018-07-08T03:37:13.800Z,15.10
2018-07-08T03:42:07.253Z,15.10
2018-07-08T03:47:00.585Z,15.00
2018-07-08T03:51:53.895Z,15.00
2018-07-08T03:56:47.124Z,15.00
2018-07-08T04:01:40.881Z,15.00
2018-07-08T04:06:34.089Z,15.10
2018-07-08T04:11:28.046Z,15.20
2018-07-08T04:16:21.270Z,15.20
2018-07-08T04:21:14.494Z,15.30
2018-07-08T04:31:00.905Z,15.50
2018-07-08T04:35:54.138Z,15.50
2018-07-08T04:40:47.451Z,15.60
2018-07-08T04:45:40.670Z,15.70
2018-07-08T04:50:33.883Z,15.80
2018-07-08T04:55:27.147Z,16.10
2018-07-08T05:00:20.443Z,18.00
2018-07-08T05:05:13.647Z,20.50
2018-07-08T05:15:00.139Z,23.50
2018-07-08T05:19:53.397Z,24.40
2018-07-08T05:24:46.617Z,25.80
2018-07-08T05:29:39.938Z,26.50
2018-07-08T05:34:33.170Z,26.10
2018-07-08T05:39:26.716Z,26.40
2018-07-08T05:44:21.283Z,28.30
2018-07-08T05:49:14.566Z,29.30
2018-07-08T05:54:07.860Z,29.10
2018-07-08T05:59:01.133Z,28.90
2018-07-08T06:03:54.398Z,28.40
2018-07-08T06:08:48.381Z,29.30
2018-07-08T06:18:35.254Z,28.60
2018-07-08T06:23:28.479Z,29.20
2018-07-08T06:28:21.757Z,31.60
2018-07-08T06:33:15.081Z,32.00
2018-07-08T06:38:08.324Z,32.30
2018-07-08T06:43:01.634Z,33.20
2018-07-08T06:47:54.906Z,31.30
2018-07-08T06:52:48.171Z,31.00
2018-07-08T06:57:41.410Z,30.70
2018-07-08T07:02:35.062Z,32.10
2018-07-08T07:07:28.310Z,33.10
2018-07-08T07:12:21.513Z,33.40
2018-07-08T07:17:14.809Z,32.70
2018-07-08T07:22:08.024Z,34.30
2018-07-08T07:27:01.266Z,34.80
2018-07-08T07:31:54.581Z,34.20
2018-07-08T07:36:47.824Z,34.10
2018-07-08T07:41:41.029Z,34.80
2018-07-08T07:46:34.954Z,35.00
2018-07-08T07:51:28.171Z,34.60
2018-07-08T08:01:14.507Z,34.50
2018-07-08T08:06:07.729Z,33.60
2018-07-08T08:11:00.962Z,34.00
2018-07-08T08:20:47.452Z,33.30
2018-07-08T08:25:40.669Z,33.80
2018-07-08T08:30:34.008Z,34.70
2018-07-08T08:35:27.246Z,33.10
2018-07-08T08:40:22.414Z,33.50
2018-07-08T08:45:16.851Z,33.90
2018-07-08T08:50:11.066Z,33.20
2018-07-08T08:55:05.805Z,34.50
2018-07-08T08:59:59.199Z,35.10
2018-07-08T09:04:52.482Z,34.40
2018-07-08T09:09:45.728Z,33.90
2018-07-08T09:14:39.387Z,33.20
2018-07-08T09:19:32.619Z,33.50
2018-07-08T09:24:26.235Z,34.10
2018-07-08T09:34:12.629Z,33.30
2018-07-08T09:39:09.347Z,32.80
2018-07-08T09:44:02.540Z,31.80
2018-07-08T09:48:55.769Z,31.80
2018-07-08T09:53:49.000Z,31.70
2018-07-08T09:58:42.230Z,31.80
2018-07-08T10:08:28.664Z,31.30
2018-07-08T10:13:22.018Z,31.20
2018-07-08T10:18:15.315Z,30.60
2018-07-08T10:23:08.567Z,29.80
2018-07-08T10:28:17.492Z,29.30
2018-07-08T10:33:10.869Z,28.40
2018-07-08T10:38:04.255Z,28.10
2018-07-08T10:42:57.523Z,27.20
2018-07-08T10:47:50.745Z,26.80
2018-07-08T10:52:44.013Z,26.10
2018-07-08T11:02:30.576Z,25.40
2018-07-08T11:07:23.915Z,25.50
2018-07-08T11:12:17.208Z,25.30
2018-07-08T11:17:10.614Z,25.10
2018-07-08T11:22:03.899Z,24.90
2018-07-08T11:26:57.169Z,24.70
2018-07-08T11:31:50.493Z,24.90
2018-07-08T11:36:43.893Z,24.90
2018-07-08T11:41:37.207Z,25.10
2018-07-08T11:46:30.463Z,25.20
2018-07-08T11:51:23.719Z,25.40
2018-07-08T11:56:16.953Z,25.30
2018-07-08T12:01:10.182Z,25.20
2018-07-08T12:10:56.559Z,24.80
2018-07-08T12:15:49.790Z,25.20
2018-07-08T12:20:43.089Z,25.30
2018-07-08T12:25:36.339Z,25.20
2018-07-08T12:30:29.542Z,25.10
2018-07-08T12:35:22.761Z,25.00
2018-07-08T12:40:15.952Z,25.30
2018-07-08T12:45:09.442Z,25.30
2018-07-08T12:50:02.909Z,25.70
2018-07-08T12:54:56.156Z,25.70
2018-07-08T12:59:49.450Z,25.70
2018-07-08T13:04:42.650Z,25.80
2018-07-08T13:09:35.870Z,25.90
2018-07-08T13:14:30.055Z,25.70
2018-07-08T13:19:23.309Z,25.80
2018-07-08T13:24:16.607Z,25.80
2018-07-08T13:29:09.901Z,25.80
2018-07-08T13:34:03.197Z,26.10
2018-07-08T13:38:56.434Z,26.40
2018-07-08T13:43:49.696Z,26.60
2018-07-08T13:48:42.973Z,26.70
2018-07-08T13:53:36.223Z,26.80
2018-07-08T14:03:22.558Z,26.80
2018-07-08T14:08:15.813Z,26.50
2018-07-08T14:13:09.325Z,26.30
2018-07-08T14:27:48.918Z,26.70
2018-07-08T14:32:42.221Z,26.70
2018-07-08T14:42:28.568Z,26.80
2018-07-08T14:52:14.918Z,27.10
2018-07-08T14:57:08.186Z,27.10
2018-07-08T15:11:49.438Z,27.40
2018-07-08T15:16:42.690Z,27.40
2018-07-08T15:21:35.938Z,27.50
2018-07-08T15:26:29.221Z,27.40
2018-07-08T15:31:22.421Z,27.20
2018-07-08T15:36:15.709Z,27.20
2018-07-08T15:41:08.937Z,27.20
2018-07-08T15:46:02.143Z,27.30
2018-07-08T15:50:55.453Z,27.30
2018-07-08T16:00:41.823Z,27.30
2018-07-08T16:05:35.081Z,27.60
2018-07-08T16:10:28.316Z,27.60
2018-07-08T16:15:21.608Z,27.50
2018-07-08T16:25:08.010Z,27.40
2018-07-08T16:30:01.406Z,27.40
2018-07-08T16:34:54.666Z,27.10
2018-07-08T16:39:47.952Z,26.90
2018-07-08T16:44:41.177Z,27.00
2018-07-08T16:49:34.429Z,26.80
2018-07-08T17:04:15.411Z,26.80
2018-07-08T17:09:09.885Z,26.70
2018-07-08T17:14:03.207Z,26.50
2018-07-08T17:18:56.515Z,26.40
2018-07-08T17:23:49.769Z,26.50
2018-07-08T17:28:43.005Z,26.50
2018-07-08T17:33:36.467Z,26.40
2018-07-08T17:38:29.712Z,26.30
2018-07-08T17:43:23.739Z,26.30
2018-07-08T17:53:10.122Z,26.20
2018-07-08T17:58:03.420Z,26.00
2018-07-08T18:02:56.651Z,25.90
2018-07-08T18:07:49.900Z,25.60
2018-07-08T18:12:43.186Z,25.60
2018-07-08T18:27:22.861Z,25.30
2018-07-08T18:32:16.111Z,25.30
2018-07-08T18:37:09.373Z,25.20
2018-07-08T18:42:02.891Z,25.10
2018-07-08T18:46:56.170Z,25.00
2018-07-08T18:51:49.736Z,24.80
2018-07-08T18:56:44.070Z,24.70
2018-07-08T19:06:30.617Z,24.50
2018-07-08T19:16:17.514Z,24.20
2018-07-08T19:21:10.806Z,24.10
2018-07-08T19:26:04.901Z,23.90
2018-07-08T19:30:58.137Z,23.80
2018-07-08T19:40:44.791Z,23.50
2018-07-08T19:45:38.167Z,23.30
2018-07-08T20:00:17.915Z,22.90
2018-07-08T20:05:11.722Z,22.80
2018-07-08T20:10:05.017Z,22.80
2018-07-08T20:14:58.299Z,22.60
2018-07-08T20:29:38.013Z,22.30
2018-07-08T20:39:24.482Z,22.00
2018-07-08T20:44:17.743Z,22.00
2018-07-08T20:49:11.207Z,21.90
2018-07-08T20:54:04.621Z,21.70
2018-07-08T20:58:57.975Z,21.70
2018-07-08T21:03:51.247Z,21.60
2018-07-08T21:08:44.508Z,21.50
2018-07-08T21:13:37.960Z,21.40
2018-07-08T21:18:31.298Z,21.30
2018-07-08T21:23:24.842Z,21.10
2018-07-08T21:28:18.105Z,21.10
2018-07-08T21:33:11.575Z,21.10
2018-07-08T21:38:04.888Z,20.90
2018-07-08T21:42:58.152Z,20.80
2018-07-08T21:47:51.464Z,20.70
2018-07-08T21:52:44.832Z,20.60
2018-07-08T21:57:38.096Z,20.50
2018-07-08T22:02:31.462Z,20.50
2018-07-08T22:07:29.246Z,20.40
2018-07-08T22:12:22.446Z,20.40
2018-07-08T22:17:15.671Z,20.30
2018-07-08T22:22:08.977Z,20.30
2018-07-08T22:27:02.302Z,20.30
2018-07-08T22:31:55.517Z,20.20
2018-07-08T22:36:48.797Z,20.10
2018-07-08T22:41:42.204Z,20.00
2018-07-08T22:51:28.660Z,19.80
2018-07-08T23:01:32.859Z,19.40
2018-07-08T23:06:26.127Z,19.40
2018-07-08T23:11:20.284Z,19.30
2018-07-08T23:16:13.523Z,19.20
2018-07-08T23:21:07.069Z,19.10
2018-07-08T23:26:00.322Z,19.00
2018-07-08T23:35:46.777Z,18.90
2018-07-08T23:50:26.267Z,18.70
2018-07-08T23:55:19.486Z,18.70
